Hamilton Municipal, TX

6:30 PM CDT on July 30, 2014 (GMT -0500)
Gatesville (KGOP) Elev 906 ft | 31.42 °N, 97.80 °W | Change Station

Current weather conditions updated 15 minutes ago

Clear
Clear
93 °F
Feels Like 95 °F
N
13
Wind Variable Wind from SSE

Tomorrow is forecast to be Cooler than today. Slight chance of a thunderstorm.

Today
High -- | Low -- °F
--% Chance of Precip.
Yesterday
High -- | Low -- °F
Precip. -- in
6:47 AM 8:30 PM
Waxing Crescent, 14% visible
Pressure 29.93 in
Visibility 8.0 miles
Clouds Clear
Heat Index 95 °F
Dew Point 64 °F
Humidity 38%
Rainfall 0.00 in
Snow Depth Not available.
UV 2 out of 12
Pollen 6.20 out of 12
Air Quality Not available.
Flu Activity Not available.
METAR KGOP 302315Z AUTO 16011KT 8SM CLR 34/18 A2993 RMK AO2

More Conditions Fewer Conditions

Pressure 29.93 in
Visibility 8.0 miles
Clouds Clear
Heat Index 95 °F
Dew Point 64 °F
Humidity 38%
Rainfall 0.00 in
Snow Depth Not available.
UV 2 out of 12
Pollen 6.20 out of 12
Air Quality Not available.
Flu Activity Not available.
METAR KGOP 302315Z AUTO 16011KT 8SM CLR 34/18 A2993 RMK AO2

More Conditions Fewer Conditions

10-Day Weather Forecast

Almanac

Astronomy

Jul. 30, 2014 Rise Set
Actual Time 6:47 AM CDT 8:30 PM CDT
Civil Twilight 6:20 AM CDT 8:56 PM CDT
Nautical Twilight 5:48 AM CDT 9:28 PM CDT
Astronomical Twilight 5:14 AM CDT 10:02 PM CDT
Moon 10:04 AM CDT 10:31 PM CDT
Length of Visible Light 14h 36m
Length of Day
13h 43m
Tomorrow will be 1m 24s shorter.
Waxing Crescent, 14% of the Moon is Illuminated
Today
Waxing Crescent
Aug 3
First Quarter
Aug 10
Full
Aug 17
Last Quarter
Aug 25
New

Today's Extremes

State Highs State Lows

Community

WunderPhotos

Upload Photos

1,739,253 photos uploaded!

Nearby

Snow Depth

Station Depth Elevation
No new snow has been reported.

Earthquake Activity

City Distance Mag. Time & Date
No recent earthquake activity has been reported nearby.
Minimum magnitude displayed is 2.5.

Coastal Water Temperatures

Place Temperature
No Stations Reporting

Nearby Weather Stations

Station Location Temp. Heat Index Dew Point Humidity Wind Precip. Elev Updated Type
W5DNT, Hamilton, TX 92.8 °F 92 °F 60 °F 33% SE  at  2.0 mph - / hr 1217 ft 6:28 PM CDT Normal
APRSWXNET Hamilton TX, Hamilton, TX 92 °F 92 °F 60 °F 35% SSE  at  5 mph 0.00 in / hr 1167 ft 5:13 PM CDT MADIS
AB5BX, Pottsville, TX 94.5 °F 94 °F 58 °F 30% South  at  14.0 mph - / hr 1414 ft 6:27 PM CDT Normal
Zion Lutheran Church, Priddy, TX 99.7 °F 107 °F 64 °F 38% SSE  at  6.7 mph 0.00 in / hr 1558 ft 6:30 PM CDT Rapid Fire

Show More Stations Show Fewer Stations